BCN weather

Barcelona International Airport
Barcelona, Catalonia, Spain

Public forecast

Using degrees Celsius for public forecast. Weather courtesy of forecast.io.

METAR (pilot weather report)

Retrieved 2017/05/25 00:30 UTC (27 minutes ago):

LEBL 250030Z 24007KT 9999 FEW020 20/15 Q1017 NOSIG

TAF (pilot weather forecast)

Forecast is more than 12 hours old.

Retrieved 2017/05/24 00:27 UTC (1 day ago):

TAF LEBL 242300Z 2500/2524 VRB04KT 9999 FEW020 TX27/2512Z TN19/2506Z TEMPO 2504/2507 32010G20KT BECMG 2508/2510 22010KT BECMG 2520/2522 VRB03KT